Time;durP1;ratioP1;P1;durP2;ratioP2;P2;SDS_P1;SDS_P2;PMS_P1;PMS_P2;Temp;Humidity;BMP_temperature;BMP_pressure;BME280_temperature;BME280_humidity;BME280_pressure;Samples;Min_cycle;Max_cycle;Signal;HPM_P1;HPM_P2
2022/06/04 21:21:47;;;;;;;4.07;3.65;;;19.10;99.90;;;;;;5082419;27;20387;-64
2022/06/04 21:24:14;;;;;;;4.40;3.63;;;19.10;99.90;;;;;;5030130;28;126632;-63
2022/06/04 21:26:43;;;;;;;4.30;3.80;;;19.10;99.90;;;;;;5026211;28;20237;-64
2022/06/04 21:29:15;;;;;;;6.75;3.90;;;19.10;99.90;;;;;;5057719;28;20227;-62
2022/06/04 21:31:46;;;;;;;6.97;4.43;;;19.00;99.90;;;;;;5054426;28;20325;-63
2022/06/04 21:39:47;;;;;;;3.72;3.38;;;18.90;99.90;;;;;;5048086;28;20199;-64
2022/06/04 21:42:14;;;;;;;4.40;4.03;;;18.90;99.90;;;;;;5053898;28;20199;-64
2022/06/04 21:44:41;;;;;;;4.18;3.75;;;18.80;99.90;;;;;;5055498;28;20231;-64
2022/06/04 21:47:08;;;;;;;5.32;4.70;;;18.80;99.90;;;;;;5055670;28;20249;-63
2022/06/04 21:49:37;;;;;;;4.78;4.22;;;18.80;99.90;;;;;;5058115;28;20999;-63
2022/06/04 21:52:07;;;;;;;4.50;4.10;;;18.80;99.90;;;;;;5059979;28;20202;-63
2022/06/04 21:54:35;;;;;;;5.03;4.32;;;18.80;99.90;;;;;;5059946;28;20246;-63
2022/06/04 21:57:04;;;;;;;4.53;4.13;;;18.70;99.90;;;;;;5061729;28;20210;-63
2022/06/04 21:59:33;;;;;;;4.93;4.20;;;18.60;99.90;;;;;;5059723;28;20187;-63
2022/06/04 22:02:00;;;;;;;4.30;3.90;;;18.60;99.90;;;;;;5059359;28;20253;-64
2022/06/04 22:04:27;;;;;;;4.60;4.15;;;18.60;99.90;;;;;;5061539;28;20195;-63
2022/06/04 22:06:54;;;;;;;4.60;4.20;;;18.60;99.90;;;;;;5060117;28;20223;-62
2022/06/04 22:09:21;;;;;;;4.63;4.18;;;18.60;99.90;;;;;;5056315;28;20219;-63
2022/06/04 22:14:43;;;;;;;4.93;4.53;;;18.60;99.90;;;;;;5059266;28;20198;-64
2022/06/04 22:17:11;;;;;;;4.68;4.28;;;18.50;99.90;;;;;;5057526;28;20208;-65
2022/06/04 22:19:42;;;;;;;7.53;4.82;;;18.50;99.90;;;;;;5059688;28;20215;-63
2022/06/04 22:22:10;;;;;;;5.72;5.03;;;18.50;99.90;;;;;;5084173;28;20197;-64
2022/06/04 22:24:38;;;;;;;5.28;4.80;;;18.40;99.90;;;;;;5058407;28;20203;-64
2022/06/04 22:27:07;;;;;;;5.88;5.00;;;18.40;99.90;;;;;;5077888;28;20246;-65
2022/06/04 22:29:35;;;;;;;6.05;4.93;;;18.30;1.00;;;;;;5074333;28;20197;-63
2022/06/04 22:32:04;;;;;;;6.28;5.20;;;18.30;1.00;;;;;;5069867;28;20198;-63
2022/06/04 22:34:32;;;;;;;5.88;5.28;;;18.20;1.00;;;;;;5065038;28;20318;-62
2022/06/04 22:37:00;;;;;;;5.50;5.00;;;18.20;1.00;;;;;;5049137;28;20217;-63
2022/06/04 22:39:27;;;;;;;5.18;4.13;;;18.10;1.00;;;;;;5046206;28;20670;-65
2022/06/04 22:41:54;;;;;;;8.20;5.28;;;18.10;1.00;;;;;;5064100;28;20251;-64
2022/06/04 22:44:21;;;;;;;6.93;4.70;;;18.00;1.00;;;;;;5064534;28;20199;-63
2022/06/04 22:46:49;;;;;;;5.15;4.60;;;18.00;1.00;;;;;;5061066;28;20191;-64
2022/06/04 22:49:16;;;;;;;5.97;4.60;;;17.90;1.00;;;;;;5044840;28;20208;-64
2022/06/04 22:51:51;;;;;;;7.03;4.68;;;18.00;1.00;;;;;;5035964;28;20196;-63
2022/06/04 22:54:24;;;;;;;5.25;4.75;;;17.90;1.00;;;;;;5047148;28;20205;-64
2022/06/04 22:56:53;;;;;;;5.88;4.32;;;17.90;1.00;;;;;;5066731;28;20198;-63
2022/06/04 22:59:21;;;;;;;5.43;4.93;;;17.90;1.00;;;;;;5046232;28;20195;-62
2022/06/04 23:01:48;;;;;;;5.40;4.90;;;17.90;1.00;;;;;;5049082;28;20213;-62
2022/06/04 23:04:18;;;;;;;5.55;4.85;;;17.80;1.00;;;;;;5060362;28;20191;-63
2022/06/04 23:06:45;;;;;;;5.43;4.90;;;17.80;1.00;;;;;;5059786;28;20188;-63
2022/06/04 23:09:13;;;;;;;5.30;4.80;;;17.80;1.00;;;;;;5056102;28;20187;-64
2022/06/04 23:23:07;;;;;;;5.30;4.63;;;17.50;1.00;;;;;;5062379;28;20184;-63
2022/06/04 23:26:03;;;;;;;6.10;4.63;;;17.40;1.00;;;;;;5060257;28;20183;-63
2022/06/04 23:28:33;;;;;;;6.22;4.63;;;17.40;1.00;;;;;;5029013;28;20200;-63
2022/06/04 23:31:04;;;;;;;9.20;4.82;;;17.40;1.00;;;;;;5059818;28;20218;-63
2022/06/04 23:33:32;;;;;;;6.78;5.28;;;17.40;1.00;;;;;;5058942;28;20195;-62
2022/06/04 23:36:00;;;;;;;6.32;4.97;;;17.30;1.00;;;;;;5032143;28;20249;-62
2022/06/04 23:38:28;;;;;;;5.45;4.95;;;17.30;1.00;;;;;;5049257;28;20231;-63
2022/06/04 23:40:58;;;;;;;5.63;5.05;;;17.30;1.00;;;;;;5058977;28;20218;-63
2022/06/04 23:43:26;;;;;;;6.05;5.30;;;17.30;1.00;;;;;;5062966;28;20195;-62
2022/06/04 23:45:53;;;;;;;5.80;5.20;;;17.20;1.00;;;;;;5045169;28;20248;-62
2022/06/04 23:48:21;;;;;;;5.95;5.35;;;17.20;1.00;;;;;;5062010;28;20203;-63
2022/06/04 23:50:50;;;;;;;6.22;5.60;;;17.20;1.00;;;;;;5051953;28;20219;-63
2022/06/04 23:53:23;;;;;;;6.05;5.45;;;17.20;1.00;;;;;;5028954;28;20200;-63
2022/06/04 23:56:02;;;;;;;6.03;5.53;;;17.20;1.00;;;;;;5063379;28;20199;-62
2022/06/04 23:58:29;;;;;;;6.00;5.50;;;17.20;1.00;;;;;;5046279;28;20213;-63
